Time,TemperatureF,DewpointF,PressureIn,WindDirection,WindDirectionDegrees,WindSpeedMPH,WindSpeedGustMPH,Humidity,HourlyPrecipIn,Conditions,Clouds,dailyrainin,SoftwareType,DateUTC
2013-03-19 00:00:00,26.6,20.1,29.81,West,270,13.0,40.0,76,21.95,,---,0.00,VWS V13.01,2013-03-19 04:00:00,
2013-03-19 00:02:00,26.5,20.0,29.81,WNW,292,17.3,17.3,76,0.00,CLR,CLR,0.00,WeatherDisplay:10.37,2013-03-19 04:02:00,
2013-03-19 00:07:00,26.4,19.9,29.81,WSW,252,26.5,26.5,76,0.00,CLR,CLR,0.00,WeatherDisplay:10.37,2013-03-19 04:07:00,
2013-03-19 00:12:00,26.3,19.8,29.81,West,261,16.0,40.0,76,21.95,,---,0.00,VWS V13.01,2013-03-19 04:12:00,
2013-03-19 00:17:00,26.2,20.0,29.81,West,277,25.3,25.3,77,0.00,CLR,CLR,0.00,WeatherDisplay:10.37,2013-03-19 04:17:00,
2013-03-19 00:22:00,25.7,19.2,29.82,WNW,291,13.0,40.0,76,21.95,,---,0.00,VWS V13.01,2013-03-19 04:22:00,
2013-03-19 00:27:00,25.3,18.8,29.82,WNW,288,17.0,40.0,76,21.95,,---,0.00,VWS V13.01,2013-03-19 04:27:00,
2013-03-19 00:32:00,25.1,18.6,29.82,West,267,7.0,40.0,76,21.95,,---,0.00,VWS V13.01,2013-03-19 04:32:00,
2013-03-19 00:37:00,24.9,18.4,29.82,NW,318,18.4,18.4,76,0.00,CLR,CLR,0.00,WeatherDisplay:10.37,2013-03-19 04:37:00,
2013-03-19 00:42:00,24.9,18.4,29.82,WSW,252,17.0,40.0,76,21.95,,---,0.00,VWS V13.01,2013-03-19 04:42:00,
2013-03-19 00:47:00,24.9,18.4,29.82,WNW,290,17.3,17.3,76,0.00,CLR,CLR,0.00,WeatherDisplay:10.37,2013-03-19 04:47:00,
2013-03-19 00:52:00,25.0,18.5,29.83,WSW,241,19.6,19.6,76,0.00,CLR,CLR,0.00,WeatherDisplay:10.37,2013-03-19 04:52:00,
2013-03-19 00:57:00,25.0,18.5,29.82,West,279,11.0,40.0,76,21.95,,---,0.00,VWS V13.01,2013-03-19 04:57:00,
2013-03-19 01:02:00,25.0,18.5,29.83,WSW,244,16.0,40.0,76,21.95,,---,0.00,VWS V13.01,2013-03-19 05:02:00,
2013-03-19 01:07:00,25.0,18.5,29.83,West,276,6.0,40.0,76,21.95,,---,0.00,VWS V13.01,2013-03-19 05:07:00,
2013-03-19 01:12:00,24.5,17.7,29.83,West,273,17.0,40.0,75,21.95,,---,0.00,VWS V13.01,2013-03-19 05:12:00,
2013-03-19 01:18:00,24.2,17.4,29.83,West,275,21.0,40.0,75,21.95,,---,0.00,VWS V13.01,2013-03-19 05:18:00,
2013-03-19 01:23:00,23.8,17.0,29.83,WSW,252,20.7,20.7,75,0.00,CLR,CLR,0.00,WeatherDisplay:10.37,2013-03-19 05:23:00,
2013-03-19 01:28:00,23.5,16.8,29.84,West,267,24.0,40.0,75,21.95,,---,0.00,VWS V13.01,2013-03-19 05:28:00,
2013-03-19 01:33:00,23.0,16.0,29.83,West,264,28.0,40.0,74,21.95,,---,0.00,VWS V13.01,2013-03-19 05:33:00,
2013-03-19 01:38:00,22.9,15.9,29.83,West,275,12.0,40.0,74,21.95,,---,0.00,VWS V13.01,2013-03-19 05:38:00,
2013-03-19 01:43:00,22.8,16.1,29.84,West,268,11.0,40.0,75,21.95,,---,0.00,VWS V13.01,2013-03-19 05:43:00,
2013-03-19 01:48:00,22.8,16.1,29.84,West,259,6.0,40.0,75,21.95,,---,0.00,VWS V13.01,2013-03-19 05:48:00,
2013-03-19 01:53:00,22.8,16.1,29.83,West,267,16.1,16.1,75,0.00,CLR,CLR,0.00,WeatherDisplay:10.37,2013-03-19 05:53:00,
2013-03-19 01:58:00,22.9,16.5,29.83,West,281,16.0,40.0,76,21.95,,---,0.00,VWS V13.01,2013-03-19 05:58:00,
2013-03-19 02:03:00,22.9,16.5,29.83,West,259,19.6,19.6,76,0.00,CLR,CLR,0.00,WeatherDisplay:10.37,2013-03-19 06:03:00,
2013-03-19 02:08:00,22.7,16.3,29.84,West,267,13.0,40.0,76,21.95,,---,0.00,VWS V13.01,2013-03-19 06:08:00,
2013-03-19 02:13:00,22.5,16.1,29.84,West,263,11.0,40.0,76,21.95,,---,0.00,VWS V13.01,2013-03-19 06:13:00,
2013-03-19 02:18:00,22.4,16.0,29.84,West,275,15.0,40.0,76,21.95,,---,0.00,VWS V13.01,2013-03-19 06:18:00,
2013-03-19 02:23:00,22.3,15.9,29.84,West,276,11.0,40.0,76,21.95,,---,0.00,VWS V13.01,2013-03-19 06:23:00,
2013-03-19 02:28:00,22.2,15.5,29.84,WSW,256,12.0,40.0,75,21.95,,---,0.00,VWS V13.01,2013-03-19 06:28:00,
2013-03-19 02:33:00,22.1,15.4,29.84,West,267,13.0,40.0,75,21.95,,---,0.00,VWS V13.01,2013-03-19 06:33:00,
2013-03-19 02:38:00,22.0,14.7,29.84,WNW,287,13.0,40.0,73,21.95,,---,0.00,VWS V13.01,2013-03-19 06:38:00,
2013-03-19 02:43:00,21.9,14.6,29.84,West,269,15.0,40.0,73,21.95,,---,0.00,VWS V13.01,2013-03-19 06:43:00,
2013-03-19 02:48:00,21.8,14.5,29.85,West,272,11.0,40.0,73,21.95,,---,0.00,VWS V13.01,2013-03-19 06:48:00,
2013-03-19 02:53:00,21.7,14.4,29.85,West,261,16.0,40.0,73,21.95,,---,0.00,VWS V13.01,2013-03-19 06:53:00,
2013-03-19 02:58:00,21.5,14.2,29.85,West,278,14.0,40.0,73,21.95,,---,0.00,VWS V13.01,2013-03-19 06:58:00,
2013-03-19 03:03:00,21.4,14.1,29.85,West,261,19.0,40.0,73,21.95,,---,0.00,VWS V13.01,2013-03-19 07:03:00,
2013-03-19 03:08:00,21.3,14.0,29.85,WNW,282,14.0,40.0,73,21.95,,---,0.00,VWS V13.01,2013-03-19 07:08:00,
2013-03-19 03:13:00,21.3,13.7,29.85,West,268,14.0,40.0,72,21.95,,---,0.00,VWS V13.01,2013-03-19 07:13:00,
2013-03-19 03:18:00,21.3,14.0,29.85,West,274,21.9,21.9,73,0.00,CLR,CLR,0.00,WeatherDisplay:10.37,2013-03-19 07:18:00,
2013-03-19 03:23:00,21.1,13.8,29.85,WNW,292,23.0,23.0,73,0.00,CLR,CLR,0.00,WeatherDisplay:10.37,2013-03-19 07:23:00,
2013-03-19 03:29:00,21.0,14.0,29.85,West,269,9.0,40.0,74,21.95,,---,0.00,VWS V13.01,2013-03-19 07:29:00,
2013-03-19 03:34:00,20.9,14.2,29.85,West,259,9.0,40.0,75,21.95,,---,0.00,VWS V13.01,2013-03-19 07:34:00,
2013-03-19 03:39:00,21.0,14.6,29.85,West,260,11.0,40.0,76,21.95,,---,0.00,VWS V13.01,2013-03-19 07:39:00,
2013-03-19 03:44:00,21.0,14.6,29.85,WSW,250,9.0,40.0,76,21.95,,---,0.00,VWS V13.01,2013-03-19 07:44:00,
2013-03-19 03:49:00,21.0,14.6,29.85,West,265,12.0,40.0,76,21.95,,---,0.00,VWS V13.01,2013-03-19 07:49:00,
2013-03-19 03:54:00,21.1,15.0,29.85,SSW,208,7.0,40.0,77,21.95,,---,0.00,VWS V13.01,2013-03-19 07:54:00,
2013-03-19 03:59:00,21.0,14.9,29.86,West,276,19.6,19.6,77,0.00,CLR,CLR,0.00,WeatherDisplay:10.37,2013-03-19 07:59:00,
2013-03-19 04:04:00,20.9,14.5,29.86,WSW,253,19.6,19.6,76,0.00,CLR,CLR,0.00,WeatherDisplay:10.37,2013-03-19 08:04:00,
2013-03-19 04:09:00,20.9,14.5,29.85,WSW,237,11.0,40.0,76,21.95,,---,0.00,VWS V13.01,2013-03-19 08:09:00,
2013-03-19 04:14:00,20.9,14.2,29.85,West,273,9.0,40.0,75,21.95,,---,0.00,VWS V13.01,2013-03-19 08:14:00,
2013-03-19 04:19:00,20.9,14.2,29.85,WNW,296,13.8,13.8,75,0.00,CLR,CLR,0.00,WeatherDisplay:10.37,2013-03-19 08:19:00,
2013-03-19 04:24:00,20.8,14.1,29.85,West,263,5.0,40.0,75,21.95,,---,0.00,VWS V13.01,2013-03-19 08:24:00,
2013-03-19 04:29:00,20.7,14.0,29.85,West,259,9.0,40.0,75,21.95,,---,0.00,VWS V13.01,2013-03-19 08:29:00,
2013-03-19 04:34:00,20.6,13.9,29.85,WNW,294,7.0,40.0,75,21.95,,---,0.00,VWS V13.01,2013-03-19 08:34:00,
2013-03-19 04:39:00,20.6,13.9,29.85,West,262,9.0,40.0,75,21.95,,---,0.00,VWS V13.01,2013-03-19 08:39:00,
2013-03-19 04:44:00,20.6,13.9,29.85,West,271,7.0,40.0,75,21.95,,---,0.00,VWS V13.01,2013-03-19 08:44:00,
2013-03-19 04:49:00,20.5,13.8,29.84,WSW,246,15.0,15.0,75,0.00,CLR,CLR,0.00,WeatherDisplay:10.37,2013-03-19 08:49:00,
2013-03-19 04:54:00,20.4,13.8,29.85,West,275,11.0,40.0,75,21.95,,---,0.00,VWS V13.01,2013-03-19 08:54:00,
2013-03-19 04:59:00,20.4,13.8,29.85,West,265,12.0,40.0,75,21.95,,---,0.00,VWS V13.01,2013-03-19 08:59:00,
2013-03-19 05:05:00,20.4,13.8,29.85,WSW,240,9.0,40.0,75,21.95,,---,0.00,VWS V13.01,2013-03-19 09:05:00,
2013-03-19 05:10:00,20.4,14.1,29.85,West,276,11.0,40.0,76,21.95,,---,0.00,VWS V13.01,2013-03-19 09:10:00,
2013-03-19 05:15:00,20.5,14.1,29.85,West,269,9.0,40.0,76,21.95,,---,0.00,VWS V13.01,2013-03-19 09:15:00,
2013-03-19 05:20:00,20.6,13.9,29.86,WSW,243,19.6,19.6,75,0.00,CLR,CLR,0.00,WeatherDisplay:10.37,2013-03-19 09:20:00,
2013-03-19 05:25:00,20.7,14.0,29.85,West,268,9.0,40.0,75,21.95,,---,0.00,VWS V13.01,2013-03-19 09:25:00,
2013-03-19 05:30:00,20.7,14.0,29.86,WSW,244,12.0,40.0,75,21.95,,---,0.00,VWS V13.01,2013-03-19 09:30:00,
2013-03-19 05:35:00,20.8,14.4,29.86,West,266,11.0,40.0,76,21.95,,---,0.00,VWS V13.01,2013-03-19 09:35:00,
2013-03-19 05:40:00,20.8,14.4,29.86,WSW,241,12.7,12.7,76,0.00,CLR,CLR,0.00,WeatherDisplay:10.37,2013-03-19 09:40:00,
2013-03-19 05:45:00,20.9,14.8,29.86,SW,233,7.0,40.0,77,21.95,,---,0.00,VWS V13.01,2013-03-19 09:45:00,
2013-03-19 05:50:00,21.1,15.0,29.87,West,279,13.0,40.0,77,21.95,,---,0.00,VWS V13.01,2013-03-19 09:50:00,
2013-03-19 05:55:00,21.0,14.6,29.86,SW,236,20.0,40.0,76,21.95,,---,0.00,VWS V13.01,2013-03-19 09:55:00,
2013-03-19 06:00:00,20.7,14.4,29.87,WSW,245,12.0,40.0,76,21.95,,---,0.00,VWS V13.01,2013-03-19 10:00:00,
2013-03-19 06:05:00,20.4,14.1,29.87,West,260,15.0,40.0,76,21.95,,---,0.00,VWS V13.01,2013-03-19 10:05:00,
2013-03-19 06:10:00,20.2,13.6,29.87,WNW,295,12.0,40.0,75,21.95,,---,0.00,VWS V13.01,2013-03-19 10:10:00,
2013-03-19 06:15:00,19.7,13.1,29.88,SW,233,20.0,40.0,75,21.95,,---,0.00,VWS V13.01,2013-03-19 10:15:00,
2013-03-19 06:20:00,19.7,13.1,29.88,WSW,242,11.0,40.0,75,21.95,,---,0.00,VWS V13.01,2013-03-19 10:20:00,
2013-03-19 06:25:00,19.7,13.4,29.89,WSW,252,15.0,15.0,76,0.00,OVC,OVC,0.00,WeatherDisplay:10.37,2013-03-19 10:25:00,
2013-03-19 06:31:00,19.5,12.9,29.88,SW,223,17.0,40.0,75,21.95,,---,0.00,VWS V13.01,2013-03-19 10:31:00,
2013-03-19 06:36:00,19.4,13.1,29.88,West,272,13.0,40.0,76,21.95,,---,0.00,VWS V13.01,2013-03-19 10:36:00,
2013-03-19 06:41:00,19.5,13.2,29.89,West,271,14.0,40.0,76,21.95,,---,0.00,VWS V13.01,2013-03-19 10:41:00,
2013-03-19 06:46:00,19.6,13.3,29.89,West,265,16.0,40.0,76,21.95,,---,0.00,VWS V13.01,2013-03-19 10:46:00,
2013-03-19 06:51:00,19.7,13.4,29.89,West,275,11.0,40.0,76,21.95,,---,0.00,VWS V13.01,2013-03-19 10:51:00,
2013-03-19 06:56:00,19.7,13.4,29.88,WNW,287,9.0,40.0,76,21.95,,---,0.00,VWS V13.01,2013-03-19 10:56:00,
2013-03-19 07:01:00,19.7,13.4,29.89,WSW,244,14.0,40.0,76,21.95,,---,0.00,VWS V13.01,2013-03-19 11:01:00,
2013-03-19 07:06:00,19.7,13.7,29.89,West,273,13.8,13.8,77,0.00,OVC,OVC,0.00,WeatherDisplay:10.37,2013-03-19 11:06:00,
2013-03-19 07:11:00,19.7,13.7,29.89,West,262,11.0,40.0,77,21.95,,---,0.00,VWS V13.01,2013-03-19 11:11:00,
2013-03-19 07:16:00,19.7,13.7,29.88,SW,225,5.0,40.0,77,21.95,,---,0.00,VWS V13.01,2013-03-19 11:16:00,
2013-03-19 07:22:00,19.7,13.7,29.89,WSW,252,20.7,20.7,77,0.00,OVC,OVC,0.00,WeatherDisplay:10.37,2013-03-19 11:22:00,
2013-03-19 07:27:00,19.7,13.7,29.89,West,267,12.7,12.7,77,0.00,OVC,OVC,0.00,WeatherDisplay:10.37,2013-03-19 11:27:00,
2013-03-19 07:32:00,19.8,13.8,29.89,WSW,242,15.0,40.0,77,21.95,,---,0.00,VWS V13.01,2013-03-19 11:32:00,
2013-03-19 07:37:00,19.8,13.8,29.89,West,261,12.0,40.0,77,21.95,,---,0.00,VWS V13.01,2013-03-19 11:37:00,
2013-03-19 07:42:00,19.8,13.8,29.89,West,281,18.0,40.0,77,21.95,,---,0.00,VWS V13.01,2013-03-19 11:42:00,
2013-03-19 07:47:00,19.7,13.7,29.89,WSW,237,16.0,40.0,77,21.95,,---,0.00,VWS V13.01,2013-03-19 11:47:00,
2013-03-19 07:52:00,19.7,13.7,29.89,WSW,250,6.0,40.0,77,21.95,,---,0.00,VWS V13.01,2013-03-19 11:52:00,
2013-03-19 07:57:00,19.7,13.7,29.89,West,259,23.0,23.0,77,0.00,OVC,OVC,0.00,WeatherDisplay:10.37,2013-03-19 11:57:00,
2013-03-19 08:02:00,19.5,13.5,29.89,West,263,21.9,21.9,77,0.00,OVC,OVC,0.00,WeatherDisplay:10.37,2013-03-19 12:02:00,
2013-03-19 08:07:00,19.3,13.0,29.90,West,267,17.0,40.0,76,21.95,,---,0.00,VWS V13.01,2013-03-19 12:07:00,
2013-03-19 08:12:00,19.1,12.8,29.90,West,261,17.0,40.0,76,21.95,,---,0.00,VWS V13.01,2013-03-19 12:12:00,
2013-03-19 08:17:00,19.0,12.7,29.90,West,268,17.0,40.0,76,21.95,,---,0.00,VWS V13.01,2013-03-19 12:17:00,
2013-03-19 08:22:00,19.0,12.7,29.90,West,275,12.7,12.7,76,0.00,OVC,OVC,0.00,WeatherDisplay:10.37,2013-03-19 12:22:00,
2013-03-19 08:27:00,19.1,12.8,29.90,West,271,17.0,40.0,76,21.95,,---,0.00,VWS V13.01,2013-03-19 12:27:00,
2013-03-19 08:32:00,19.2,12.9,29.90,West,279,4.0,40.0,76,21.95,,---,0.00,VWS V13.01,2013-03-19 12:32:00,
2013-03-19 08:38:00,19.3,13.3,29.89,SW,219,18.0,40.0,77,21.95,,---,0.00,VWS V13.01,2013-03-19 12:38:00,
2013-03-19 08:43:00,19.3,13.3,29.89,WSW,247,16.0,40.0,77,21.95,,---,0.00,VWS V13.01,2013-03-19 12:43:00,
2013-03-19 08:48:00,19.4,13.4,29.89,West,267,18.0,40.0,77,21.95,,---,0.00,VWS V13.01,2013-03-19 12:48:00,
2013-03-19 08:53:00,19.3,13.0,29.89,WNW,294,14.0,40.0,76,21.95,,---,0.00,VWS V13.01,2013-03-19 12:53:00,
2013-03-19 08:58:00,19.4,13.1,29.90,West,265,11.0,40.0,76,21.95,,---,0.00,VWS V13.01,2013-03-19 12:58:00,
2013-03-19 09:03:00,19.4,13.1,29.89,West,264,15.0,40.0,76,21.95,,---,0.00,VWS V13.01,2013-03-19 13:03:00,
2013-03-19 09:08:00,19.2,12.9,29.90,West,269,12.0,40.0,76,21.95,,---,0.00,VWS V13.01,2013-03-19 13:08:00,
2013-03-19 09:13:00,19.3,13.0,29.90,WSW,257,9.0,40.0,76,21.95,,---,0.00,VWS V13.01,2013-03-19 13:13:00,
2013-03-19 09:18:00,19.3,13.0,29.90,WSW,248,9.0,40.0,76,21.95,,---,0.00,VWS V13.01,2013-03-19 13:18:00,
2013-03-19 09:23:00,19.4,13.1,29.90,WSW,252,21.0,40.0,76,21.95,,---,0.00,VWS V13.01,2013-03-19 13:23:00,
2013-03-19 09:28:00,19.5,13.2,29.90,West,267,20.0,40.0,76,21.95,,---,0.00,VWS V13.01,2013-03-19 13:28:00,
2013-03-19 09:33:00,19.1,12.5,29.90,WSW,257,10.0,40.0,75,21.95,,---,0.00,VWS V13.01,2013-03-19 13:33:00,
2013-03-19 09:39:00,19.5,12.9,29.91,West,264,10.0,40.0,75,21.95,,---,0.00,VWS V13.01,2013-03-19 13:39:00,
2013-03-19 09:44:00,19.6,12.7,29.90,WSW,246,25.3,25.3,74,0.00,OVC,OVC,0.00,WeatherDisplay:10.37,2013-03-19 13:44:00,
2013-03-19 09:49:00,19.3,12.4,29.91,West,277,18.4,18.4,74,0.00,OVC,OVC,0.00,WeatherDisplay:10.37,2013-03-19 13:49:00,
2013-03-19 09:54:00,19.7,13.1,29.91,West,263,11.5,11.5,75,0.00,OVC,OVC,0.00,WeatherDisplay:10.37,2013-03-19 13:54:00,
2013-03-19 09:59:00,19.9,13.3,29.91,WSW,245,24.2,24.2,75,0.00,OVC,OVC,0.00,WeatherDisplay:10.37,2013-03-19 13:59:00,
2013-03-19 10:04:00,19.8,13.2,29.91,West,267,14.0,14.0,75,0.00,OVC,OVC,0.00,WeatherDisplay:10.37,2013-03-19 14:04:00,
2013-03-19 10:09:00,19.7,13.1,29.91,WSW,238,25.3,25.3,75,0.00,OVC,OVC,0.00,WeatherDisplay:10.37,2013-03-19 14:09:00,
2013-03-19 10:14:00,20.0,13.6,29.91,West,268,19.6,19.6,76,0.00,OVC,OVC,0.00,WeatherDisplay:10.37,2013-03-19 14:14:00,
2013-03-19 10:19:00,20.2,13.5,29.91,West,265,18.4,18.4,75,0.00,OVC,OVC,0.00,WeatherDisplay:10.37,2013-03-19 14:19:00,
2013-03-19 10:24:00,20.1,13.4,29.91,WSW,245,25.3,25.3,75,0.00,OVC,OVC,0.00,WeatherDisplay:10.37,2013-03-19 14:24:00,
2013-03-19 10:30:00,20.1,13.4,29.92,West,259,21.9,21.9,75,0.00,OVC,OVC,0.00,WeatherDisplay:10.37,2013-03-19 14:30:00,
2013-03-19 10:35:00,20.0,13.0,29.92,West,263,26.0,26.0,74,0.00,OVC,OVC,0.00,WeatherDisplay:10.37,2013-03-19 14:35:00,
2013-03-19 10:40:00,20.2,13.5,29.92,West,280,18.0,18.0,75,0.00,OVC,OVC,0.00,WeatherDisplay:10.37,2013-03-19 14:40:00,
2013-03-19 10:45:00,20.5,13.9,29.92,West,265,7.0,40.0,75,21.95,,---,0.00,VWS V13.01,2013-03-19 14:45:00,
2013-03-19 10:50:00,20.7,13.7,29.92,West,275,15.0,40.0,74,21.95,,---,0.00,VWS V13.01,2013-03-19 14:50:00,
2013-03-19 10:55:00,20.3,13.4,29.92,WSW,256,15.0,40.0,74,21.95,,---,0.00,VWS V13.01,2013-03-19 14:55:00,
2013-03-19 11:00:00,20.3,13.3,29.93,WSW,249,20.0,20.0,74,0.00,OVC,OVC,0.00,WeatherDisplay:10.37,2013-03-19 15:00:00,
2013-03-19 11:05:00,20.7,13.4,29.93,West,265,25.3,25.3,73,0.00,OVC,OVC,0.00,WeatherDisplay:10.37,2013-03-19 15:05:00,
2013-03-19 11:10:00,21.2,13.9,29.93,West,272,19.6,19.6,73,0.00,OVC,OVC,0.00,WeatherDisplay:10.37,2013-03-19 15:10:00,
2013-03-19 11:15:00,21.6,14.0,29.93,WSW,248,7.0,40.0,72,21.95,,---,0.00,VWS V13.01,2013-03-19 15:15:00,
2013-03-19 11:20:00,21.9,14.3,29.93,WNW,290,12.0,40.0,72,21.95,,---,0.00,VWS V13.01,2013-03-19 15:20:00,
2013-03-19 11:25:00,22.0,14.4,29.93,West,276,15.0,40.0,72,21.95,,---,0.00,VWS V13.01,2013-03-19 15:25:00,
2013-03-19 11:30:00,22.5,14.9,29.93,WSW,248,17.0,40.0,72,21.95,,---,0.00,VWS V13.01,2013-03-19 15:30:00,
2013-03-19 11:35:00,22.6,14.9,29.94,SW,231,12.0,40.0,72,21.95,,---,0.00,VWS V13.01,2013-03-19 15:35:00,
2013-03-19 11:40:00,22.8,15.5,29.94,West,270,18.0,40.0,73,21.95,,---,0.00,VWS V13.01,2013-03-19 15:40:00,
2013-03-19 11:45:00,22.6,14.6,29.94,West,269,23.0,23.0,71,0.00,CLR,CLR,0.00,WeatherDisplay:10.37,2013-03-19 15:45:00,
2013-03-19 11:50:00,22.7,15.0,29.94,WSW,253,20.7,20.7,72,0.00,CLR,CLR,0.00,WeatherDisplay:10.37,2013-03-19 15:50:00,
2013-03-19 11:55:00,23.0,15.3,29.94,West,263,15.0,40.0,72,21.95,,---,0.00,VWS V13.01,2013-03-19 15:55:00,
2013-03-19 12:01:00,22.8,15.1,29.95,West,259,8.0,40.0,72,21.95,,---,0.00,VWS V13.01,2013-03-19 16:01:00,
2013-03-19 12:06:00,23.3,15.6,29.95,West,281,13.0,40.0,72,21.95,,---,0.00,VWS V13.01,2013-03-19 16:06:00,
2013-03-19 12:11:00,23.6,15.6,29.95,West,281,19.6,19.6,71,0.00,CLR,CLR,0.00,WeatherDisplay:10.37,2013-03-19 16:11:00,
2013-03-19 12:16:00,23.9,15.9,29.95,West,272,15.0,40.0,71,21.95,,---,0.00,VWS V13.01,2013-03-19 16:16:00,
2013-03-19 12:21:00,23.9,15.5,29.95,West,261,22.0,22.0,70,0.00,CLR,CLR,0.00,WeatherDisplay:10.37,2013-03-19 16:21:00,
2013-03-19 12:26:00,24.1,16.1,29.95,SW,221,15.0,40.0,71,21.95,,---,0.00,VWS V13.01,2013-03-19 16:26:00,
2013-03-19 12:31:00,24.6,16.2,29.95,West,271,10.0,40.0,70,21.95,,---,0.00,VWS V13.01,2013-03-19 16:31:00,
2013-03-19 12:36:00,24.5,15.8,29.96,SW,236,26.0,26.0,69,0.00,CLR,CLR,0.00,WeatherDisplay:10.37,2013-03-19 16:36:00,
2013-03-19 12:41:00,24.5,15.4,29.96,WSW,254,26.5,26.5,68,0.00,CLR,CLR,0.00,WeatherDisplay:10.37,2013-03-19 16:41:00,
2013-03-19 12:47:00,24.7,16.3,29.96,West,260,21.9,21.9,70,0.00,CLR,CLR,0.00,WeatherDisplay:10.37,2013-03-19 16:47:00,
2013-03-19 12:52:00,25.0,16.3,29.96,West,270,24.2,24.2,69,0.00,CLR,CLR,0.00,WeatherDisplay:10.37,2013-03-19 16:52:00,
2013-03-19 12:57:00,25.3,15.9,29.97,West,277,20.7,20.7,67,0.00,CLR,CLR,0.00,WeatherDisplay:10.37,2013-03-19 16:57:00,
2013-03-19 13:02:00,25.1,15.7,29.97,WSW,249,28.8,28.8,67,0.00,CLR,CLR,0.00,WeatherDisplay:10.37,2013-03-19 17:02:00,
2013-03-19 13:07:00,25.4,16.3,29.97,West,263,24.2,24.2,68,0.00,CLR,CLR,0.00,WeatherDisplay:10.37,2013-03-19 17:07:00,
2013-03-19 13:13:00,25.9,16.4,29.97,WSW,258,26.5,26.5,67,0.00,CLR,CLR,0.00,WeatherDisplay:10.37,2013-03-19 17:13:00,
2013-03-19 13:18:00,25.8,16.7,29.97,WSW,250,19.6,19.6,68,0.00,CLR,CLR,0.00,WeatherDisplay:10.37,2013-03-19 17:18:00,
2013-03-19 13:23:00,26.4,17.6,29.97,West,261,28.8,28.8,69,0.00,CLR,CLR,0.00,WeatherDisplay:10.37,2013-03-19 17:23:00,
2013-03-19 13:28:00,26.3,16.8,29.98,WSW,252,20.7,20.7,67,0.00,CLR,CLR,0.00,WeatherDisplay:10.37,2013-03-19 17:28:00,
2013-03-19 13:34:00,26.5,16.7,29.98,WNW,287,16.1,16.1,66,0.00,SCT,SCT,0.00,WeatherDisplay:10.37,2013-03-19 17:34:00,
2013-03-19 13:39:00,26.6,16.4,29.98,West,267,20.0,20.0,65,0.00,CLR,CLR,0.00,WeatherDisplay:10.37,2013-03-19 17:39:00,
2013-03-19 13:44:00,26.8,16.2,29.98,WSW,257,25.3,25.3,64,0.00,CLR,CLR,0.00,WeatherDisplay:10.37,2013-03-19 17:44:00,
2013-03-19 13:49:00,26.8,16.2,29.98,WNW,285,19.6,19.6,64,0.00,FEW,FEW,0.00,WeatherDisplay:10.37,2013-03-19 17:49:00,
2013-03-19 13:54:00,27.4,17.2,29.98,WNW,295,17.0,40.0,65,21.95,,---,0.00,VWS V13.01,2013-03-19 17:54:00,
2013-03-19 13:59:00,27.5,16.6,29.99,West,275,14.0,40.0,63,21.95,,---,0.00,VWS V13.01,2013-03-19 17:59:00,
2013-03-19 14:04:00,27.8,16.8,29.99,West,259,18.4,18.4,63,0.00,CLR,CLR,0.00,WeatherDisplay:10.37,2013-03-19 18:04:00,
2013-03-19 14:09:00,28.2,16.9,29.99,West,279,16.0,40.0,62,21.95,,---,0.00,VWS V13.01,2013-03-19 18:09:00,
2013-03-19 14:14:00,28.4,17.1,29.99,WSW,256,9.0,40.0,62,21.95,,---,0.00,VWS V13.01,2013-03-19 18:14:00,
2013-03-19 14:19:00,28.8,17.8,29.99,West,264,20.0,40.0,63,21.95,,---,0.00,VWS V13.01,2013-03-19 18:19:00,
2013-03-19 14:24:00,28.6,17.6,29.99,West,277,14.0,40.0,63,21.95,,---,0.00,VWS V13.01,2013-03-19 18:24:00,
2013-03-19 14:29:00,28.8,17.4,29.99,WSW,244,18.0,40.0,62,21.95,,---,0.00,VWS V13.01,2013-03-19 18:29:00,
2013-03-19 14:34:00,28.9,16.8,29.99,WSW,257,19.0,40.0,60,21.95,,---,0.00,VWS V13.01,2013-03-19 18:34:00,
2013-03-19 14:39:00,29.8,17.6,29.99,WSW,252,19.0,40.0,60,21.95,,---,0.00,VWS V13.01,2013-03-19 18:39:00,
2013-03-19 14:44:00,29.7,17.5,29.99,WNW,289,21.9,21.9,60,0.00,CLR,CLR,0.00,WeatherDisplay:10.37,2013-03-19 18:44:00,
2013-03-19 14:49:00,29.5,17.3,29.99,West,269,23.0,23.0,60,0.00,CLR,CLR,0.00,WeatherDisplay:10.37,2013-03-19 18:49:00,
2013-03-19 14:54:00,30.1,18.3,29.99,West,267,24.2,24.2,61,0.00,CLR,CLR,0.00,WeatherDisplay:10.37,2013-03-19 18:54:00,
2013-03-19 15:00:00,29.8,17.2,29.99,West,277,18.0,40.0,59,21.95,,---,0.00,VWS V13.01,2013-03-19 19:00:00,
2013-03-19 15:04:00,29.9,18.1,29.99,West,281,19.6,19.6,61,0.00,CLR,CLR,0.00,WeatherDisplay:10.37,2013-03-19 19:04:00,
2013-03-19 15:10:00,30.0,17.8,29.99,WNW,282,15.0,40.0,60,21.95,,---,0.00,VWS V13.01,2013-03-19 19:10:00,
2013-03-19 15:15:00,30.2,17.6,29.99,WSW,254,21.0,40.0,59,21.95,,---,0.00,VWS V13.01,2013-03-19 19:15:00,
2013-03-19 15:20:00,30.4,18.2,30.00,WSW,258,25.0,40.0,60,21.95,,---,0.00,VWS V13.01,2013-03-19 19:20:00,
2013-03-19 15:25:00,30.6,18.3,30.00,NW,319,20.7,20.7,60,0.00,CLR,CLR,0.00,WeatherDisplay:10.37,2013-03-19 19:25:00,
2013-03-19 15:30:00,30.8,16.9,30.00,WSW,257,21.9,21.9,56,0.00,CLR,CLR,0.00,WeatherDisplay:10.37,2013-03-19 19:30:00,
2013-03-19 15:35:00,31.0,18.0,30.00,West,264,16.0,40.0,58,21.95,,---,0.00,VWS V13.01,2013-03-19 19:35:00,
2013-03-19 15:40:00,30.6,17.2,30.00,West,277,24.2,24.2,57,0.00,CLR,CLR,0.00,WeatherDisplay:10.37,2013-03-19 19:40:00,
2013-03-19 15:45:00,31.3,17.4,30.00,West,273,16.0,40.0,56,21.95,,---,0.00,VWS V13.01,2013-03-19 19:45:00,
2013-03-19 15:50:00,31.1,17.7,30.00,West,271,11.0,40.0,57,21.95,,---,0.00,VWS V13.01,2013-03-19 19:50:00,
2013-03-19 15:55:00,31.1,17.6,30.00,West,261,23.0,23.0,57,0.00,CLR,CLR,0.00,WeatherDisplay:10.37,2013-03-19 19:55:00,
2013-03-19 16:00:00,30.9,17.5,30.00,West,259,13.0,40.0,57,21.95,,---,0.00,VWS V13.01,2013-03-19 20:00:00,
2013-03-19 16:05:00,31.3,18.2,30.00,West,281,14.0,40.0,58,21.95,,---,0.00,VWS V13.01,2013-03-19 20:05:00,
2013-03-19 16:10:00,31.6,17.7,30.00,WNW,284,11.0,40.0,56,21.95,,---,0.00,VWS V13.01,2013-03-19 20:10:00,
2013-03-19 16:15:00,32.5,19.0,30.01,WNW,284,13.0,40.0,57,21.95,,---,0.00,VWS V13.01,2013-03-19 20:15:00,
2013-03-19 16:20:00,32.1,18.2,30.01,NW,304,14.0,40.0,56,21.95,,---,0.00,VWS V13.01,2013-03-19 20:20:00,
2013-03-19 16:25:00,32.3,19.2,30.01,West,277,16.0,40.0,58,21.95,,---,0.00,VWS V13.01,2013-03-19 20:25:00,
2013-03-19 16:30:00,32.1,19.0,30.01,SW,236,22.0,40.0,58,21.95,,---,0.00,VWS V13.01,2013-03-19 20:30:00,
2013-03-19 16:35:00,32.4,18.5,30.01,WSW,254,12.0,40.0,56,21.95,,---,0.00,VWS V13.01,2013-03-19 20:35:00,
2013-03-19 16:40:00,32.9,18.9,30.01,WSW,254,13.0,40.0,56,21.95,,---,0.00,VWS V13.01,2013-03-19 20:40:00,
2013-03-19 16:45:00,32.3,18.3,30.01,West,267,23.0,23.0,56,0.00,SCT,SCT,0.00,WeatherDisplay:10.37,2013-03-19 20:45:00,
2013-03-19 16:51:00,32.6,19.0,30.01,WSW,252,25.3,25.3,57,0.00,SCT,SCT,0.00,WeatherDisplay:10.37,2013-03-19 20:51:00,
2013-03-19 16:56:00,33.1,19.5,30.01,WNW,290,10.0,40.0,57,21.95,,---,0.00,VWS V13.01,2013-03-19 20:56:00,
2013-03-19 17:01:00,33.2,18.8,30.01,West,267,10.0,40.0,55,21.95,,---,0.00,VWS V13.01,2013-03-19 21:01:00,
2013-03-19 17:06:00,33.4,19.4,30.02,NW,317,9.0,40.0,56,21.95,,---,0.00,VWS V13.01,2013-03-19 21:06:00,
2013-03-19 17:11:00,33.4,19.4,30.02,West,272,14.0,40.0,56,21.95,,---,0.00,VWS V13.01,2013-03-19 21:11:00,
2013-03-19 17:16:00,32.8,18.4,30.02,West,263,23.0,23.0,55,0.00,SCT,SCT,0.00,WeatherDisplay:10.37,2013-03-19 21:16:00,
2013-03-19 17:22:00,32.7,18.8,30.02,WSW,246,19.0,40.0,56,21.95,,---,0.00,VWS V13.01,2013-03-19 21:22:00,
2013-03-19 17:27:00,32.8,18.8,30.02,West,281,15.0,40.0,56,21.95,,---,0.00,VWS V13.01,2013-03-19 21:27:00,
2013-03-19 17:32:00,32.8,18.0,30.02,WNW,284,18.4,18.4,54,0.00,BKN,BKN,0.00,WeatherDisplay:10.37,2013-03-19 21:32:00,
2013-03-19 17:37:00,33.0,18.6,30.02,West,271,10.0,40.0,55,21.95,,---,0.00,VWS V13.01,2013-03-19 21:37:00,
2013-03-19 17:42:00,33.2,19.6,30.03,West,273,16.0,40.0,57,21.95,,---,0.00,VWS V13.01,2013-03-19 21:42:00,
2013-03-19 17:47:00,33.1,19.1,30.03,WNW,289,19.6,19.6,56,0.00,BKN,BKN,0.00,WeatherDisplay:10.37,2013-03-19 21:47:00,
2013-03-19 17:52:00,33.1,18.7,30.03,WSW,247,18.0,40.0,55,21.95,,---,0.00,VWS V13.01,2013-03-19 21:52:00,
2013-03-19 17:57:00,33.1,18.7,30.03,WSW,248,12.0,40.0,55,21.95,,---,0.00,VWS V13.01,2013-03-19 21:57:00,
2013-03-19 18:02:00,33.0,18.6,30.03,West,273,15.0,40.0,55,21.95,,---,0.00,VWS V13.01,2013-03-19 22:02:00,
2013-03-19 18:07:00,33.3,18.9,30.03,West,272,13.0,40.0,55,21.95,,---,0.00,VWS V13.01,2013-03-19 22:07:00,
2013-03-19 18:12:00,33.3,18.9,30.03,West,273,13.8,13.8,55,0.00,OVC,OVC,0.00,WeatherDisplay:10.37,2013-03-19 22:12:00,
2013-03-19 18:17:00,33.5,19.5,30.03,WNW,288,14.0,40.0,56,21.95,,---,0.00,VWS V13.01,2013-03-19 22:17:00,
2013-03-19 18:22:00,33.3,18.9,30.04,West,281,14.0,40.0,55,21.95,,---,0.00,VWS V13.01,2013-03-19 22:22:00,
2013-03-19 18:27:00,33.3,18.9,30.04,WSW,254,10.0,40.0,55,21.95,,---,0.00,VWS V13.01,2013-03-19 22:27:00,
2013-03-19 18:32:00,33.0,18.1,30.04,West,268,20.7,20.7,54,0.00,OVC,OVC,0.00,WeatherDisplay:10.37,2013-03-19 22:32:00,
2013-03-19 18:37:00,32.8,18.4,30.04,WSW,254,12.0,40.0,55,21.95,,---,0.00,VWS V13.01,2013-03-19 22:37:00,
2013-03-19 18:43:00,32.8,18.8,30.04,West,277,14.0,40.0,56,21.95,,---,0.00,VWS V13.01,2013-03-19 22:43:00,
2013-03-19 18:48:00,32.7,19.2,30.05,WNW,286,12.0,40.0,57,21.95,,---,0.00,VWS V13.01,2013-03-19 22:48:00,
2013-03-19 18:53:00,32.7,19.2,30.04,WNW,286,11.0,40.0,57,21.95,,---,0.00,VWS V13.01,2013-03-19 22:53:00,
2013-03-19 18:58:00,32.6,18.7,30.05,West,279,18.0,40.0,56,21.95,,---,0.00,VWS V13.01,2013-03-19 22:58:00,
2013-03-19 19:03:00,32.7,18.3,30.05,West,281,11.0,40.0,55,21.95,,---,0.00,VWS V13.01,2013-03-19 23:03:00,
2013-03-19 19:08:00,32.7,18.8,30.05,SSW,207,11.0,40.0,56,21.95,,---,0.00,VWS V13.01,2013-03-19 23:08:00,
2013-03-19 19:13:00,32.5,19.0,30.05,West,276,13.0,40.0,57,21.95,,---,0.00,VWS V13.01,2013-03-19 23:13:00,
2013-03-19 19:18:00,32.4,18.9,30.05,West,263,6.0,40.0,57,21.95,,---,0.00,VWS V13.01,2013-03-19 23:18:00,
2013-03-19 19:23:00,32.4,18.4,30.05,WSW,253,16.1,16.1,56,0.00,CLR,CLR,0.00,WeatherDisplay:10.37,2013-03-19 23:23:00,
2013-03-19 19:28:00,32.3,18.8,30.05,WSW,248,16.0,40.0,57,21.95,,---,0.00,VWS V13.01,2013-03-19 23:28:00,
2013-03-19 19:33:00,32.0,18.5,30.05,West,265,13.0,40.0,57,21.95,,---,0.00,VWS V13.01,2013-03-19 23:33:00,
2013-03-19 19:38:00,31.9,18.8,30.05,West,269,7.0,40.0,58,21.95,,---,0.00,VWS V13.01,2013-03-19 23:38:00,
2013-03-19 19:43:00,31.7,18.2,30.06,West,277,11.0,40.0,57,21.95,,---,0.00,VWS V13.01,2013-03-19 23:43:00,
2013-03-19 19:48:00,31.7,18.2,30.06,West,276,15.0,40.0,57,21.95,,---,0.00,VWS V13.01,2013-03-19 23:48:00,
2013-03-19 19:53:00,31.4,18.4,30.06,WSW,248,11.0,40.0,58,21.95,,---,0.00,VWS V13.01,2013-03-19 23:53:00,
2013-03-19 19:59:00,31.2,18.5,30.06,West,273,15.0,15.0,59,0.00,CLR,CLR,0.00,WeatherDisplay:10.37,2013-03-19 23:59:00,
2013-03-19 20:04:00,31.1,18.5,30.06,West,267,10.0,40.0,59,21.95,,---,0.00,VWS V13.01,2013-03-20 00:04:00,
2013-03-19 20:09:00,31.0,18.4,30.07,West,268,9.0,40.0,59,21.95,,---,0.00,VWS V13.01,2013-03-20 00:09:00,
2013-03-19 20:14:00,31.0,18.4,30.07,West,268,11.0,40.0,59,21.95,,---,0.00,VWS V13.01,2013-03-20 00:14:00,
2013-03-19 20:19:00,31.0,18.4,30.07,West,267,6.0,40.0,59,21.95,,---,0.00,VWS V13.01,2013-03-20 00:19:00,
2013-03-19 20:24:00,30.8,18.6,30.07,West,265,8.0,40.0,60,21.95,,---,0.00,VWS V13.01,2013-03-20 00:24:00,
2013-03-19 20:29:00,30.7,18.9,30.07,West,281,9.0,40.0,61,21.95,,---,0.00,VWS V13.01,2013-03-20 00:29:00,
2013-03-19 20:34:00,30.8,18.6,30.07,WSW,250,18.0,40.0,60,21.95,,---,0.00,VWS V13.01,2013-03-20 00:34:00,
2013-03-19 20:39:00,30.8,18.6,30.07,WNW,288,17.0,40.0,60,21.95,,---,0.00,VWS V13.01,2013-03-20 00:39:00,
2013-03-19 20:44:00,30.7,18.4,30.07,West,261,16.1,16.1,60,0.00,CLR,CLR,0.00,WeatherDisplay:10.37,2013-03-20 00:44:00,
2013-03-19 20:49:00,30.7,18.5,30.07,West,261,11.0,40.0,60,21.95,,---,0.00,VWS V13.01,2013-03-20 00:49:00,
2013-03-19 20:54:00,30.7,18.5,30.07,WSW,252,15.0,40.0,60,21.95,,---,0.00,VWS V13.01,2013-03-20 00:54:00,
2013-03-19 20:59:00,30.5,18.7,30.07,West,276,10.0,40.0,61,21.95,,---,0.00,VWS V13.01,2013-03-20 00:59:00,
2013-03-19 21:04:00,30.6,18.4,30.08,West,265,19.0,40.0,60,21.95,,---,0.00,VWS V13.01,2013-03-20 01:04:00,
2013-03-19 21:09:00,30.5,18.7,30.08,West,271,18.0,40.0,61,21.95,,---,0.00,VWS V13.01,2013-03-20 01:09:00,
2013-03-19 21:14:00,30.3,18.8,30.08,West,267,16.0,16.0,62,0.00,CLR,CLR,0.00,WeatherDisplay:10.37,2013-03-20 01:14:00,
2013-03-19 21:19:00,30.2,18.8,30.08,WSW,254,17.0,40.0,62,21.95,,---,0.00,VWS V13.01,2013-03-20 01:19:00,
2013-03-19 21:24:00,30.2,18.8,30.08,West,263,9.0,40.0,62,21.95,,---,0.00,VWS V13.01,2013-03-20 01:24:00,
2013-03-19 21:30:00,30.1,19.0,30.08,WNW,297,13.0,40.0,63,21.95,,---,0.00,VWS V13.01,2013-03-20 01:30:00,
2013-03-19 21:35:00,30.0,19.3,30.08,West,270,12.0,40.0,64,21.95,,---,0.00,VWS V13.01,2013-03-20 01:35:00,
2013-03-19 21:40:00,29.9,19.2,30.08,WSW,243,12.0,40.0,64,21.95,,---,0.00,VWS V13.01,2013-03-20 01:40:00,
2013-03-19 21:45:00,29.7,19.0,30.08,West,268,11.0,40.0,64,21.95,,---,0.00,VWS V13.01,2013-03-20 01:45:00,
2013-03-19 21:50:00,29.6,18.9,30.08,WSW,254,18.4,18.4,64,0.00,CLR,CLR,0.00,WeatherDisplay:10.37,2013-03-20 01:50:00,
2013-03-19 21:55:00,29.5,19.2,30.08,WSW,257,13.0,40.0,65,21.95,,---,0.00,VWS V13.01,2013-03-20 01:55:00,
2013-03-19 22:00:00,29.4,19.1,30.09,WNW,287,11.0,40.0,65,21.95,,---,0.00,VWS V13.01,2013-03-20 02:00:00,
2013-03-19 22:05:00,29.3,19.4,30.08,WSW,252,7.0,40.0,66,21.95,,---,0.00,VWS V13.01,2013-03-20 02:05:00,
2013-03-19 22:10:00,29.2,19.3,30.08,West,261,12.0,40.0,66,21.95,,---,0.00,VWS V13.01,2013-03-20 02:10:00,
2013-03-19 22:15:00,29.0,19.1,30.08,WSW,257,11.0,40.0,66,21.95,,---,0.00,VWS V13.01,2013-03-20 02:15:00,
2013-03-19 22:20:00,28.9,19.0,30.08,WNW,286,18.0,18.0,66,0.00,CLR,CLR,0.00,WeatherDisplay:10.37,2013-03-20 02:20:00,
2013-03-19 22:25:00,28.8,18.9,30.08,SW,234,13.0,40.0,66,21.95,,---,0.00,VWS V13.01,2013-03-20 02:25:00,
2013-03-19 22:30:00,28.8,18.5,30.09,West,267,14.0,40.0,65,21.95,,---,0.00,VWS V13.01,2013-03-20 02:30:00,
2013-03-19 22:35:00,28.7,18.4,30.09,West,277,18.0,40.0,65,21.95,,---,0.00,VWS V13.01,2013-03-20 02:35:00,
2013-03-19 22:40:00,28.6,18.3,30.09,SW,226,13.0,40.0,65,21.95,,---,0.00,VWS V13.01,2013-03-20 02:40:00,
2013-03-19 22:45:00,28.5,18.6,30.09,WSW,250,17.3,17.3,66,0.00,CLR,CLR,0.00,WeatherDisplay:10.37,2013-03-20 02:45:00,
2013-03-19 22:50:00,28.4,18.5,30.09,West,264,13.0,40.0,66,21.95,,---,0.00,VWS V13.01,2013-03-20 02:50:00,
2013-03-19 22:55:00,28.3,18.4,30.09,West,261,10.0,40.0,66,21.95,,---,0.00,VWS V13.01,2013-03-20 02:55:00,
2013-03-19 23:00:00,28.3,18.4,30.09,WSW,239,13.0,40.0,66,21.95,,---,0.00,VWS V13.01,2013-03-20 03:00:00,
2013-03-19 23:05:00,28.2,18.7,30.09,WSW,258,11.0,40.0,67,21.95,,---,0.00,VWS V13.01,2013-03-20 03:05:00,
2013-03-19 23:10:00,28.0,18.5,30.09,WNW,288,18.0,40.0,67,21.95,,---,0.00,VWS V13.01,2013-03-20 03:10:00,
2013-03-19 23:15:00,28.0,18.8,30.09,West,271,9.0,40.0,68,21.95,,---,0.00,VWS V13.01,2013-03-20 03:15:00,
2013-03-19 23:20:00,27.9,18.7,30.10,WNW,299,12.0,40.0,68,21.95,,---,0.00,VWS V13.01,2013-03-20 03:20:00,
2013-03-19 23:25:00,27.9,18.7,30.10,West,273,7.0,40.0,68,21.95,,---,0.00,VWS V13.01,2013-03-20 03:25:00,
2013-03-19 23:31:00,27.8,18.6,30.09,West,281,5.0,40.0,68,21.95,,---,0.00,VWS V13.01,2013-03-20 03:31:00,
2013-03-19 23:36:00,27.5,18.7,30.10,WSW,250,10.0,40.0,69,21.95,,---,0.00,VWS V13.01,2013-03-20 03:36:00,
2013-03-19 23:41:00,27.5,18.3,30.10,WNW,284,9.0,40.0,68,21.95,,---,0.00,VWS V13.01,2013-03-20 03:41:00,
2013-03-19 23:46:00,27.4,18.2,30.10,WSW,258,12.0,40.0,68,21.95,,---,0.00,VWS V13.01,2013-03-20 03:46:00,
2013-03-19 23:51:00,27.3,18.1,30.10,West,265,5.0,40.0,68,21.95,,---,0.00,VWS V13.01,2013-03-20 03:51:00,
2013-03-19 23:56:00,27.2,18.0,30.09,West,280,11.5,11.5,68,0.00,CLR,CLR,0.00,WeatherDisplay:10.37,2013-03-20 03:56:00,